Time;durP1;ratioP1;P1;durP2;ratioP2;P2;SDS_P1;SDS_P2;PMS_P1;PMS_P2;Temp;Humidity;BMP_temperature;BMP_pressure;BME280_temperature;BME280_humidity;BME280_pressure;Samples;Min_cycle;Max_cycle;Signal;HPM_P1;HPM_P2
2024/01/18 00:01:10;;;;;;;21.87;10.10;;;;;;;;;;4970009;28;20222;-70
2024/01/18 00:03:41;;;;;;;14.37;9.60;;;;;;;;;;4987487;28;20264;-69
2024/01/18 00:06:07;;;;;;;14.50;9.77;;;;;;;;;;4988781;28;20246;-68
2024/01/18 00:08:32;;;;;;;18.37;9.50;;;;;;;;;;4988051;28;20659;-68
2024/01/18 00:10:59;;;;;;;19.27;11.27;;;;;;;;;;4989506;28;20195;-70
2024/01/18 00:13:24;;;;;;;13.93;10.23;;;;;;;;;;4989781;28;20211;-70
2024/01/18 00:15:49;;;;;;;16.83;10.00;;;;;;;;;;4982677;28;20652;-69
2024/01/18 00:18:15;;;;;;;19.53;11.50;;;;;;;;;;4987801;28;20247;-70
2024/01/18 00:20:40;;;;;;;14.97;10.73;;;;;;;;;;4991884;28;20294;-70
2024/01/18 00:23:05;;;;;;;18.33;11.33;;;;;;;;;;4992227;28;20202;-70
2024/01/18 00:25:30;;;;;;;19.23;10.43;;;;;;;;;;4993722;28;20191;-70
2024/01/18 00:27:55;;;;;;;15.63;10.40;;;;;;;;;;4986066;28;20941;-70
2024/01/18 00:30:21;;;;;;;19.93;10.77;;;;;;;;;;4976676;28;22264;-68
2024/01/18 00:32:46;;;;;;;18.87;11.27;;;;;;;;;;4968354;28;20428;-69
2024/01/18 00:35:11;;;;;;;20.90;9.77;;;;;;;;;;4987614;28;20792;-69
2024/01/18 00:37:36;;;;;;;19.30;9.70;;;;;;;;;;4991124;28;20693;-69
2024/01/18 00:40:02;;;;;;;15.63;10.10;;;;;;;;;;4989063;28;20278;-69
2024/01/18 00:42:27;;;;;;;16.07;9.87;;;;;;;;;;4992312;28;20655;-69
2024/01/18 00:44:52;;;;;;;14.20;10.10;;;;;;;;;;4992297;28;20251;-69
2024/01/18 00:47:17;;;;;;;17.20;10.17;;;;;;;;;;4991094;28;20290;-70
2024/01/18 00:49:43;;;;;;;16.23;9.80;;;;;;;;;;4986816;28;20757;-70
2024/01/18 00:52:08;;;;;;;19.90;9.90;;;;;;;;;;4991578;28;20203;-69
2024/01/18 00:54:34;;;;;;;16.47;9.23;;;;;;;;;;4992492;28;20267;-69
2024/01/18 00:56:59;;;;;;;13.63;8.90;;;;;;;;;;4989604;28;20249;-70
2024/01/18 00:59:25;;;;;;;17.30;9.60;;;;;;;;;;4992949;28;20242;-70
2024/01/18 01:01:50;;;;;;;16.03;8.80;;;;;;;;;;4992189;28;20178;-69
2024/01/18 01:04:15;;;;;;;16.60;9.43;;;;;;;;;;4989086;28;20179;-69
2024/01/18 01:06:40;;;;;;;11.57;8.00;;;;;;;;;;4988497;28;20180;-70
2024/01/18 01:09:06;;;;;;;13.60;8.27;;;;;;;;;;4990930;28;20691;-70
2024/01/18 01:11:31;;;;;;;16.43;10.23;;;;;;;;;;4987632;28;20226;-70
2024/01/18 01:13:56;;;;;;;15.93;8.93;;;;;;;;;;4991902;28;20217;-69
2024/01/18 01:16:21;;;;;;;16.57;9.17;;;;;;;;;;4988501;28;20203;-69
2024/01/18 01:18:47;;;;;;;16.40;8.83;;;;;;;;;;4989282;28;20620;-69
2024/01/18 01:21:12;;;;;;;14.37;8.00;;;;;;;;;;4989841;28;20180;-70
2024/01/18 01:23:41;;;;;;;10.30;7.23;;;;;;;;;;4990743;28;20783;-69
2024/01/18 01:26:08;;;;;;;12.17;7.23;;;;;;;;;;4989785;28;20187;-69
2024/01/18 01:28:33;;;;;;;13.10;7.70;;;;;;;;;;4987672;28;20656;-69
2024/01/18 01:30:58;;;;;;;13.37;7.50;;;;;;;;;;4989658;28;20262;-70
2024/01/18 01:33:24;;;;;;;10.53;6.67;;;;;;;;;;4989047;28;20179;-70
2024/01/18 01:35:49;;;;;;;11.87;7.43;;;;;;;;;;4988848;28;20191;-69
2024/01/18 01:38:14;;;;;;;11.67;7.33;;;;;;;;;;4985400;28;20208;-69
2024/01/18 01:40:39;;;;;;;18.90;7.27;;;;;;;;;;4985733;28;20215;-69
2024/01/18 01:43:04;;;;;;;12.73;7.03;;;;;;;;;;4989708;28;20703;-69
2024/01/18 01:45:31;;;;;;;10.17;6.87;;;;;;;;;;4980094;28;20259;-69
2024/01/18 01:47:56;;;;;;;12.17;7.60;;;;;;;;;;4988787;28;20179;-69
2024/01/18 01:50:21;;;;;;;11.80;7.50;;;;;;;;;;4991180;28;20780;-69
2024/01/18 01:52:47;;;;;;;11.60;7.07;;;;;;;;;;4986970;28;20186;-69
2024/01/18 01:55:12;;;;;;;10.70;6.53;;;;;;;;;;4988148;28;20183;-69
2024/01/18 01:57:38;;;;;;;13.70;6.97;;;;;;;;;;4985070;28;20214;-69
2024/01/18 02:00:04;;;;;;;13.87;7.37;;;;;;;;;;4988406;28;20203;-69
2024/01/18 02:02:29;;;;;;;9.97;6.70;;;;;;;;;;4980935;28;20278;-69
2024/01/18 02:04:54;;;;;;;10.27;7.07;;;;;;;;;;4987696;28;20191;-68
2024/01/18 02:07:20;;;;;;;12.87;6.43;;;;;;;;;;4984900;28;20223;-70
2024/01/18 02:09:46;;;;;;;12.33;7.27;;;;;;;;;;4987099;28;20211;-70
2024/01/18 02:12:12;;;;;;;16.30;9.13;;;;;;;;;;4987440;28;20187;-70
2024/01/18 02:14:37;;;;;;;9.13;6.40;;;;;;;;;;4989552;28;20624;-69
2024/01/18 02:17:04;;;;;;;15.07;6.93;;;;;;;;;;4984704;28;20215;-70
2024/01/18 02:19:29;;;;;;;9.37;6.60;;;;;;;;;;4985363;28;20699;-69
2024/01/18 02:21:54;;;;;;;11.00;7.00;;;;;;;;;;4990260;28;20176;-71
2024/01/18 02:24:21;;;;;;;9.67;6.53;;;;;;;;;;4986233;28;20171;-69
2024/01/18 02:26:46;;;;;;;12.37;6.63;;;;;;;;;;4990929;28;20199;-70
2024/01/18 02:29:11;;;;;;;14.73;8.03;;;;;;;;;;4987542;28;20680;-69
2024/01/18 02:31:37;;;;;;;15.67;7.87;;;;;;;;;;4987406;28;20183;-69
2024/01/18 02:34:08;;;;;;;13.20;7.30;;;;;;;;;;4985241;28;20180;-70
2024/01/18 02:36:34;;;;;;;12.67;8.53;;;;;;;;;;4987698;28;20615;-70
2024/01/18 02:38:59;;;;;;;15.73;6.97;;;;;;;;;;4986453;28;20286;-68
2024/01/18 02:41:24;;;;;;;12.97;6.93;;;;;;;;;;4984909;28;20821;-68
2024/01/18 02:43:50;;;;;;;12.07;8.00;;;;;;;;;;4987922;28;20171;-71
2024/01/18 02:46:17;;;;;;;13.23;6.83;;;;;;;;;;4988958;28;20184;-69
2024/01/18 02:48:42;;;;;;;12.07;7.10;;;;;;;;;;4988111;28;20184;-69
2024/01/18 02:51:07;;;;;;;10.27;6.70;;;;;;;;;;4987162;28;20210;-68
2024/01/18 02:53:33;;;;;;;14.47;7.50;;;;;;;;;;4988141;28;20206;-70
2024/01/18 02:55:58;;;;;;;12.70;6.67;;;;;;;;;;4985675;28;20180;-70
2024/01/18 02:58:23;;;;;;;14.00;7.33;;;;;;;;;;4985569;28;20294;-69
2024/01/18 03:00:49;;;;;;;13.87;6.57;;;;;;;;;;4983413;28;20286;-70
2024/01/18 03:03:14;;;;;;;15.63;6.83;;;;;;;;;;4986958;28;20179;-69
2024/01/18 03:05:40;;;;;;;11.43;6.00;;;;;;;;;;4984117;28;20180;-69
2024/01/18 03:08:05;;;;;;;10.13;6.30;;;;;;;;;;4983770;28;20187;-68
2024/01/18 03:10:30;;;;;;;11.47;7.27;;;;;;;;;;4983888;28;20865;-70
2024/01/18 03:12:56;;;;;;;11.50;6.33;;;;;;;;;;4989919;28;20187;-69
2024/01/18 03:15:21;;;;;;;10.53;6.40;;;;;;;;;;4984583;28;20564;-70
2024/01/18 03:17:46;;;;;;;11.63;6.17;;;;;;;;;;4983316;28;20690;-70
2024/01/18 03:20:12;;;;;;;10.30;5.30;;;;;;;;;;4990521;28;20234;-71
2024/01/18 03:22:40;;;;;;;18.13;6.77;;;;;;;;;;4990169;28;20266;-70
2024/01/18 03:25:05;;;;;;;8.80;6.33;;;;;;;;;;4979439;28;20187;-70
2024/01/18 03:27:31;;;;;;;12.43;6.43;;;;;;;;;;4986241;28;20192;-70
2024/01/18 03:29:56;;;;;;;7.67;4.60;;;;;;;;;;4988056;28;20215;-70
2024/01/18 03:32:22;;;;;;;7.73;4.60;;;;;;;;;;4988730;28;20191;-70
2024/01/18 03:34:47;;;;;;;9.20;4.50;;;;;;;;;;4984688;28;20183;-70
2024/01/18 03:37:12;;;;;;;7.23;4.90;;;;;;;;;;4987278;28;20203;-70
2024/01/18 03:39:37;;;;;;;9.70;5.30;;;;;;;;;;4987246;28;20293;-69
2024/01/18 03:42:03;;;;;;;10.60;5.30;;;;;;;;;;4983175;28;20175;-70
2024/01/18 03:44:28;;;;;;;16.60;5.97;;;;;;;;;;4986298;28;20182;-70
2024/01/18 03:46:53;;;;;;;9.03;4.70;;;;;;;;;;4988890;28;20655;-71
2024/01/18 03:49:19;;;;;;;6.27;4.40;;;;;;;;;;4986936;28;20690;-70
2024/01/18 03:51:44;;;;;;;6.70;3.97;;;;;;;;;;4988330;28;20176;-70
2024/01/18 03:54:10;;;;;;;10.23;4.47;;;;;;;;;;4987835;28;20632;-70
2024/01/18 03:56:35;;;;;;;9.07;4.63;;;;;;;;;;4985729;28;20191;-70
2024/01/18 03:59:01;;;;;;;7.60;4.07;;;;;;;;;;4988984;28;20207;-70
2024/01/18 04:01:30;;;;;;;5.53;3.43;;;;;;;;;;4989485;28;20183;-71
2024/01/18 04:03:55;;;;;;;6.10;3.40;;;;;;;;;;4986271;28;20180;-70
2024/01/18 04:06:20;;;;;;;4.97;3.40;;;;;;;;;;4991050;28;20180;-70
2024/01/18 04:08:45;;;;;;;6.07;3.47;;;;;;;;;;4985534;28;20659;-70
2024/01/18 04:11:10;;;;;;;6.80;4.43;;;;;;;;;;4989226;28;20274;-71
2024/01/18 04:13:36;;;;;;;5.37;3.30;;;;;;;;;;4992131;28;20180;-69
2024/01/18 04:16:01;;;;;;;4.47;3.43;;;;;;;;;;4990828;28;20274;-70
2024/01/18 04:18:26;;;;;;;7.67;3.30;;;;;;;;;;4988295;28;20210;-70
2024/01/18 04:20:52;;;;;;;4.50;3.57;;;;;;;;;;4988692;28;20211;-69
2024/01/18 04:23:19;;;;;;;5.53;3.23;;;;;;;;;;4990351;28;20190;-69
2024/01/18 04:25:44;;;;;;;8.77;3.70;;;;;;;;;;4991680;28;20183;-69
2024/01/18 04:28:09;;;;;;;7.17;4.00;;;;;;;;;;4988153;28;20180;-71
2024/01/18 04:30:34;;;;;;;4.33;2.80;;;;;;;;;;4987668;28;20596;-70
2024/01/18 04:33:00;;;;;;;8.43;3.70;;;;;;;;;;4992155;28;20191;-70
2024/01/18 04:35:25;;;;;;;5.83;3.20;;;;;;;;;;4987829;28;20270;-70
2024/01/18 04:37:50;;;;;;;5.90;3.50;;;;;;;;;;4986592;28;20229;-69
2024/01/18 04:40:15;;;;;;;7.60;3.20;;;;;;;;;;4991344;28;20195;-69
2024/01/18 04:42:40;;;;;;;9.50;3.40;;;;;;;;;;4989392;28;20251;-70
2024/01/18 04:45:07;;;;;;;5.20;3.00;;;;;;;;;;4989042;28;20597;-69
2024/01/18 04:47:32;;;;;;;5.37;2.83;;;;;;;;;;4985515;28;20251;-70
2024/01/18 04:49:57;;;;;;;8.60;3.40;;;;;;;;;;4983944;28;20199;-68
2024/01/18 04:52:23;;;;;;;8.40;3.77;;;;;;;;;;4978291;28;20201;-69
2024/01/18 04:54:48;;;;;;;4.43;2.97;;;;;;;;;;4988456;28;20623;-68
2024/01/18 04:57:13;;;;;;;3.83;2.60;;;;;;;;;;4992108;28;20200;-69
2024/01/18 04:59:38;;;;;;;7.57;3.50;;;;;;;;;;4988910;28;20207;-69
2024/01/18 05:02:03;;;;;;;6.57;3.87;;;;;;;;;;4986548;28;20270;-68
2024/01/18 05:04:29;;;;;;;5.77;3.50;;;;;;;;;;4987591;28;20207;-70
2024/01/18 05:06:54;;;;;;;6.10;3.87;;;;;;;;;;4983508;28;20717;-70
2024/01/18 05:09:19;;;;;;;5.00;3.00;;;;;;;;;;4984260;28;20195;-69
2024/01/18 05:11:45;;;;;;;5.07;2.87;;;;;;;;;;4988063;28;20180;-70
2024/01/18 05:14:10;;;;;;;4.90;2.67;;;;;;;;;;4985162;28;20559;-70
2024/01/18 05:16:39;;;;;;;4.27;3.57;;;;;;;;;;4989512;28;20683;-69
2024/01/18 05:19:04;;;;;;;4.50;3.17;;;;;;;;;;4989654;28;20294;-68
2024/01/18 05:21:30;;;;;;;5.10;3.10;;;;;;;;;;4990216;28;20283;-69
2024/01/18 05:23:55;;;;;;;6.03;2.90;;;;;;;;;;4991023;28;20644;-69
2024/01/18 05:26:20;;;;;;;6.70;3.07;;;;;;;;;;4985646;28;20235;-69
2024/01/18 05:28:46;;;;;;;13.63;5.47;;;;;;;;;;4994119;28;20210;-69
2024/01/18 05:31:11;;;;;;;7.30;3.30;;;;;;;;;;4992724;28;20556;-69
2024/01/18 05:33:36;;;;;;;5.73;3.30;;;;;;;;;;4990446;28;20279;-70
2024/01/18 05:36:02;;;;;;;8.73;3.87;;;;;;;;;;4991001;28;20226;-69
2024/01/18 05:38:30;;;;;;;6.53;3.13;;;;;;;;;;4992194;28;20627;-70
2024/01/18 05:40:55;;;;;;;6.23;4.37;;;;;;;;;;4990672;28;20187;-69
2024/01/18 05:43:20;;;;;;;6.73;3.90;;;;;;;;;;4987217;28;20195;-69
2024/01/18 05:45:45;;;;;;;7.90;3.97;;;;;;;;;;4990699;28;20656;-68
2024/01/18 05:48:11;;;;;;;7.20;3.87;;;;;;;;;;4989855;28;20271;-69
2024/01/18 05:50:36;;;;;;;5.43;3.63;;;;;;;;;;4990389;28;20211;-70
2024/01/18 05:53:01;;;;;;;5.17;3.43;;;;;;;;;;4990315;28;20183;-70
2024/01/18 05:55:26;;;;;;;6.80;4.27;;;;;;;;;;4988758;28;20647;-70
2024/01/18 05:57:51;;;;;;;5.67;3.77;;;;;;;;;;4982100;28;20200;-70
2024/01/18 06:00:17;;;;;;;9.93;4.17;;;;;;;;;;4990152;28;20211;-70
2024/01/18 06:02:42;;;;;;;9.83;3.70;;;;;;;;;;4977600;28;20196;-70
2024/01/18 06:05:07;;;;;;;3.57;3.27;;;;;;;;;;4988601;28;20176;-69
2024/01/18 06:07:35;;;;;;;7.80;4.20;;;;;;;;;;4989308;28;20180;-70
2024/01/18 06:10:01;;;;;;;7.37;4.27;;;;;;;;;;4986505;28;20237;-70
2024/01/18 06:12:27;;;;;;;5.60;3.80;;;;;;;;;;4989522;28;20274;-70
2024/01/18 06:14:52;;;;;;;6.93;4.20;;;;;;;;;;4988431;28;20199;-69
2024/01/18 06:17:17;;;;;;;9.23;3.70;;;;;;;;;;4988196;28;20691;-71
2024/01/18 06:19:42;;;;;;;5.77;4.37;;;;;;;;;;4987630;28;20984;-70
2024/01/18 06:22:07;;;;;;;6.40;3.70;;;;;;;;;;4988531;28;20184;-70
2024/01/18 06:24:33;;;;;;;4.97;3.53;;;;;;;;;;4990557;28;20171;-70
2024/01/18 06:26:58;;;;;;;5.00;3.20;;;;;;;;;;4987242;28;20176;-70
2024/01/18 06:29:29;;;;;;;5.47;3.93;;;;;;;;;;4988030;28;20576;-69
2024/01/18 06:31:55;;;;;;;7.10;3.97;;;;;;;;;;4991518;28;20196;-69
2024/01/18 06:34:20;;;;;;;3.47;3.10;;;;;;;;;;4990403;28;20651;-71
2024/01/18 06:36:45;;;;;;;13.47;3.80;;;;;;;;;;4991319;28;20655;-70
2024/01/18 06:39:10;;;;;;;6.07;3.87;;;;;;;;;;4983285;28;20195;-70
2024/01/18 06:41:36;;;;;;;8.83;4.30;;;;;;;;;;4991022;28;20247;-70
2024/01/18 06:44:01;;;;;;;5.63;4.07;;;;;;;;;;4989782;28;20211;-70
2024/01/18 06:46:27;;;;;;;6.80;3.97;;;;;;;;;;4991377;28;20475;-70
2024/01/18 06:48:53;;;;;;;6.43;3.90;;;;;;;;;;4990653;28;20266;-69
2024/01/18 06:51:21;;;;;;;4.67;3.53;;;;;;;;;;4991676;28;20255;-70
2024/01/18 06:53:46;;;;;;;4.47;3.67;;;;;;;;;;4989109;28;20187;-71
2024/01/18 06:56:12;;;;;;;6.23;4.60;;;;;;;;;;4989071;28;20238;-70
2024/01/18 06:58:37;;;;;;;6.33;4.03;;;;;;;;;;4986847;28;20289;-70
2024/01/18 07:01:02;;;;;;;6.60;4.03;;;;;;;;;;4988316;28;20207;-70
2024/01/18 07:03:30;;;;;;;6.80;3.90;;;;;;;;;;4988451;28;20175;-70
2024/01/18 07:05:55;;;;;;;9.40;4.33;;;;;;;;;;4982792;28;20187;-70
2024/01/18 07:08:20;;;;;;;6.33;3.77;;;;;;;;;;4982714;28;20192;-68
2024/01/18 07:10:48;;;;;;;8.23;3.97;;;;;;;;;;4989017;28;20234;-69
2024/01/18 07:13:13;;;;;;;6.10;3.67;;;;;;;;;;4989037;28;20186;-70
2024/01/18 07:15:38;;;;;;;6.37;3.33;;;;;;;;;;4989049;28;20184;-69
2024/01/18 07:18:03;;;;;;;6.70;4.00;;;;;;;;;;4984854;28;20263;-70
2024/01/18 07:20:29;;;;;;;7.20;4.77;;;;;;;;;;4987714;28;20294;-69
2024/01/18 07:22:54;;;;;;;6.43;3.93;;;;;;;;;;4989242;28;20176;-69
2024/01/18 07:25:19;;;;;;;4.70;3.50;;;;;;;;;;4988224;28;20655;-70
2024/01/18 07:27:44;;;;;;;8.77;3.90;;;;;;;;;;4985853;28;20195;-70
2024/01/18 07:30:10;;;;;;;9.73;4.50;;;;;;;;;;4986705;28;20262;-70
2024/01/18 07:32:35;;;;;;;9.37;4.20;;;;;;;;;;4996072;28;20183;-70
2024/01/18 07:35:01;;;;;;;5.80;4.40;;;;;;;;;;4993608;28;20198;-71
2024/01/18 07:37:27;;;;;;;5.70;4.33;;;;;;;;;;4990862;28;20208;-70
2024/01/18 07:39:52;;;;;;;8.73;4.33;;;;;;;;;;4990544;28;20199;-70
2024/01/18 07:42:17;;;;;;;6.10;4.10;;;;;;;;;;4992754;28;20187;-70
2024/01/18 07:44:44;;;;;;;6.50;4.27;;;;;;;;;;4989815;28;20263;-70
2024/01/18 07:47:10;;;;;;;8.30;4.50;;;;;;;;;;4991650;28;20190;-70
2024/01/18 07:49:35;;;;;;;5.60;4.00;;;;;;;;;;4985200;28;20200;-71
2024/01/18 07:52:01;;;;;;;7.40;4.43;;;;;;;;;;4989222;28;20192;-70
2024/01/18 07:54:27;;;;;;;6.10;3.43;;;;;;;;;;4982356;28;20190;-70
2024/01/18 07:56:52;;;;;;;6.17;3.97;;;;;;;;;;4979086;28;20219;-69
2024/01/18 07:59:18;;;;;;;7.33;3.60;;;;;;;;;;4991724;28;20650;-70
2024/01/18 08:01:45;;;;;;;8.37;4.07;;;;;;;;;;4987770;28;21619;-70
2024/01/18 08:04:10;;;;;;;4.23;3.33;;;;;;;;;;4993780;28;20187;-69
2024/01/18 08:06:35;;;;;;;14.37;6.73;;;;;;;;;;4997550;28;20183;-70
2024/01/18 08:09:00;;;;;;;6.50;3.77;;;;;;;;;;4987140;28;20206;-69
2024/01/18 08:11:25;;;;;;;5.80;3.93;;;;;;;;;;4989909;28;20183;-70
2024/01/18 08:13:51;;;;;;;20.40;8.10;;;;;;;;;;4991731;28;20184;-70
2024/01/18 08:16:17;;;;;;;9.60;6.07;;;;;;;;;;4988850;28;20171;-69
2024/01/18 08:18:42;;;;;;;6.80;4.53;;;;;;;;;;4982316;28;20215;-70
2024/01/18 08:21:07;;;;;;;7.37;4.07;;;;;;;;;;4981282;23;1093826;-67
2024/01/18 08:23:32;;;;;;;7.17;4.07;;;;;;;;;;5013548;28;20193;-66
2024/01/18 08:25:57;;;;;;;8.07;4.30;;;;;;;;;;5012739;28;20183;-68
2024/01/18 08:28:23;;;;;;;7.80;4.00;;;;;;;;;;5013420;28;20215;-67
2024/01/18 08:30:48;;;;;;;7.97;3.90;;;;;;;;;;5009897;28;20573;-67
2024/01/18 08:33:14;;;;;;;8.60;3.67;;;;;;;;;;5011894;28;20255;-67
2024/01/18 08:35:40;;;;;;;9.00;3.60;;;;;;;;;;5008318;28;20697;-67
2024/01/18 08:38:05;;;;;;;6.70;4.33;;;;;;;;;;5011708;28;20203;-66
2024/01/18 08:40:30;;;;;;;12.37;4.30;;;;;;;;;;5006658;28;20191;-67
2024/01/18 08:42:56;;;;;;;6.83;3.33;;;;;;;;;;4992240;28;20168;-68
2024/01/18 08:45:22;;;;;;;8.40;3.53;;;;;;;;;;5009433;28;20175;-67
2024/01/18 08:47:47;;;;;;;6.37;3.33;;;;;;;;;;5011341;28;20179;-68
2024/01/18 08:50:15;;;;;;;5.87;3.70;;;;;;;;;;5005842;28;20203;-68
2024/01/18 08:52:40;;;;;;;4.40;2.90;;;;;;;;;;5010237;28;20206;-68
2024/01/18 08:55:05;;;;;;;5.40;3.83;;;;;;;;;;4992697;28;20179;-69
2024/01/18 08:57:31;;;;;;;6.97;2.53;;;;;;;;;;5008065;28;20206;-67
2024/01/18 08:59:56;;;;;;;6.37;3.13;;;;;;;;;;5010435;28;20682;-66
2024/01/18 09:02:22;;;;;;;5.33;2.63;;;;;;;;;;5005835;28;20274;-67
2024/01/18 09:04:47;;;;;;;7.53;2.90;;;;;;;;;;5010890;28;20529;-67
2024/01/18 09:07:12;;;;;;;6.23;2.60;;;;;;;;;;5009071;28;20193;-67
2024/01/18 09:09:37;;;;;;;2.63;2.40;;;;;;;;;;5004940;28;20662;-67
2024/01/18 09:12:02;;;;;;;4.10;2.90;;;;;;;;;;4992198;28;20179;-67
2024/01/18 09:14:28;;;;;;;3.73;2.73;;;;;;;;;;5012102;28;20561;-66
2024/01/18 09:16:53;;;;;;;3.90;2.73;;;;;;;;;;5009897;28;20210;-66
2024/01/18 09:19:20;;;;;;;4.23;2.50;;;;;;;;;;4993945;28;20189;-67
2024/01/18 09:21:46;;;;;;;3.70;2.30;;;;;;;;;;5008076;28;20202;-68
2024/01/18 09:24:12;;;;;;;3.53;2.07;;;;;;;;;;5005530;28;20186;-67
2024/01/18 09:26:37;;;;;;;4.77;3.67;;;;;;;;;;5009069;28;20176;-67
2024/01/18 09:29:02;;;;;;;12.87;3.47;;;;;;;;;;4991336;28;20186;-67
2024/01/18 09:31:28;;;;;;;5.10;2.70;;;;;;;;;;5008186;28;20183;-68
2024/01/18 09:33:53;;;;;;;7.03;2.77;;;;;;;;;;5012124;28;20270;-67
2024/01/18 09:36:18;;;;;;;4.27;2.57;;;;;;;;;;4988352;28;20541;-67
2024/01/18 09:38:44;;;;;;;3.17;2.57;;;;;;;;;;5012369;28;20202;-67
2024/01/18 09:41:09;;;;;;;8.33;3.20;;;;;;;;;;5007999;28;20290;-68
2024/01/18 09:43:39;;;;;;;4.43;3.23;;;;;;;;;;5011187;28;20183;-67
2024/01/18 09:46:06;;;;;;;4.47;3.27;;;;;;;;;;5007713;28;20183;-66
2024/01/18 09:48:32;;;;;;;4.17;2.87;;;;;;;;;;5010535;28;20189;-66
2024/01/18 09:50:57;;;;;;;9.43;2.63;;;;;;;;;;5008280;28;20210;-66
2024/01/18 09:53:22;;;;;;;2.93;2.03;;;;;;;;;;5007043;28;20191;-67
2024/01/18 09:55:50;;;;;;;3.87;1.77;;;;;;;;;;5010281;28;20206;-66
2024/01/18 09:58:15;;;;;;;4.37;2.67;;;;;;;;;;4991712;28;20252;-66
2024/01/18 10:00:46;;;;;;;5.00;2.10;;;;;;;;;;4993418;28;20198;-67
2024/01/18 10:03:12;;;;;;;6.87;1.80;;;;;;;;;;5010374;28;20183;-67
2024/01/18 10:05:37;;;;;;;1.70;1.20;;;;;;;;;;4994866;28;20629;-66
2024/01/18 10:08:03;;;;;;;3.47;1.60;;;;;;;;;;5009188;28;20603;-68
2024/01/18 10:10:28;;;;;;;6.77;1.70;;;;;;;;;;5010036;28;20198;-68
2024/01/18 10:12:54;;;;;;;3.90;1.60;;;;;;;;;;5010398;28;20709;-68
2024/01/18 10:15:29;;;;;;;3.37;1.73;;;;;;;;;;4991617;28;20198;-68
2024/01/18 10:17:54;;;;;;;6.20;1.90;;;;;;;;;;5011106;28;20190;-68
2024/01/18 10:20:22;;;;;;;2.60;1.30;;;;;;;;;;5009944;28;20210;-68
2024/01/18 10:22:47;;;;;;;1.73;1.20;;;;;;;;;;5011116;28;20182;-68
2024/01/18 10:25:13;;;;;;;4.03;1.50;;;;;;;;;;5008421;28;20599;-66
2024/01/18 10:27:39;;;;;;;1.63;1.10;;;;;;;;;;5007819;28;20182;-68
2024/01/18 10:30:04;;;;;;;1.47;1.23;;;;;;;;;;5009828;28;20616;-69
2024/01/18 10:32:32;;;;;;;3.47;1.57;;;;;;;;;;5008215;28;20171;-69
2024/01/18 10:34:57;;;;;;;2.03;1.50;;;;;;;;;;5011077;28;20297;-68
2024/01/18 10:37:23;;;;;;;3.83;1.20;;;;;;;;;;5006154;28;20617;-69
2024/01/18 10:39:48;;;;;;;4.43;1.53;;;;;;;;;;5009050;28;20715;-68
2024/01/18 10:42:13;;;;;;;1.83;1.10;;;;;;;;;;5010116;28;20205;-69
2024/01/18 10:44:45;;;;;;;1.63;0.87;;;;;;;;;;4990044;28;20388;-70
2024/01/18 10:47:11;;;;;;;5.40;1.27;;;;;;;;;;5008583;28;20673;-69
2024/01/18 10:49:37;;;;;;;3.73;0.70;;;;;;;;;;5006986;28;20198;-70
2024/01/18 10:52:03;;;;;;;1.30;0.60;;;;;;;;;;5005197;28;20183;-69
2024/01/18 10:54:30;;;;;;;0.60;0.40;;;;;;;;;;4989656;28;20651;-69
2024/01/18 10:56:56;;;;;;;1.73;0.47;;;;;;;;;;5007799;28;20179;-69
2024/01/18 10:59:21;;;;;;;2.80;0.60;;;;;;;;;;5007680;28;20770;-69
2024/01/18 11:01:47;;;;;;;1.00;0.37;;;;;;;;;;4988984;28;20183;-70
2024/01/18 11:04:12;;;;;;;1.05;0.50;;;;;;;;;;4987653;28;20340;-70
2024/01/18 11:06:38;;;;;;;0.82;0.40;;;;;;;;;;5007882;28;20174;-67
2024/01/18 11:09:03;;;;;;;0.80;0.40;;;;;;;;;;5005271;28;20763;-69
2024/01/18 11:11:29;;;;;;;5.20;0.68;;;;;;;;;;5007817;28;21335;-68
2024/01/18 11:13:55;;;;;;;2.08;0.73;;;;;;;;;;5010164;28;20190;-68
2024/01/18 11:16:20;;;;;;;3.80;0.50;;;;;;;;;;5005452;28;20183;-69
2024/01/18 11:18:49;;;;;;;2.00;0.35;;;;;;;;;;5009765;28;20206;-68
2024/01/18 11:21:14;;;;;;;2.20;0.35;;;;;;;;;;5007766;28;20207;-69
2024/01/18 11:23:40;;;;;;;0.93;0.27;;;;;;;;;;4990221;28;20185;-70
2024/01/18 11:26:07;;;;;;;1.83;0.40;;;;;;;;;;4991175;28;20171;-70
2024/01/18 11:28:33;;;;;;;1.13;0.23;;;;;;;;;;5007136;28;20249;-69
2024/01/18 11:30:59;;;;;;;1.87;0.50;;;;;;;;;;5007110;28;20760;-68
2024/01/18 11:33:25;;;;;;;0.40;0.40;;;;;;;;;;5008677;28;20207;-69
2024/01/18 11:35:50;;;;;;;2.47;0.60;;;;;;;;;;5010431;28;20202;-69
2024/01/18 11:38:28;;;;;;;2.77;0.53;;;;;;;;;;4988771;28;20238;-69
2024/01/18 11:40:56;;;;;;;2.20;1.07;;;;;;;;;;5007300;28;20229;-69
2024/01/18 11:43:23;;;;;;;2.60;0.60;;;;;;;;;;4992594;28;20237;-69
2024/01/18 11:45:50;;;;;;;2.57;0.40;;;;;;;;;;4989021;28;20222;-69
2024/01/18 11:48:15;;;;;;;0.70;0.40;;;;;;;;;;4992239;28;20266;-68
2024/01/18 11:50:40;;;;;;;2.40;0.40;;;;;;;;;;5000615;28;20575;-68
2024/01/18 11:53:06;;;;;;;1.13;0.40;;;;;;;;;;5003439;28;20190;-69
2024/01/18 11:55:32;;;;;;;3.27;0.90;;;;;;;;;;5008598;28;20175;-69
2024/01/18 11:58:01;;;;;;;1.47;0.47;;;;;;;;;;5008031;28;20187;-69
2024/01/18 12:00:26;;;;;;;0.70;0.27;;;;;;;;;;5009931;28;20207;-69
2024/01/18 12:02:52;;;;;;;2.30;0.60;;;;;;;;;;5012245;28;20256;-69
2024/01/18 12:05:17;;;;;;;3.20;0.93;;;;;;;;;;5009434;28;20175;-70
2024/01/18 12:07:44;;;;;;;2.97;0.50;;;;;;;;;;5007796;28;20213;-69
2024/01/18 12:10:09;;;;;;;1.47;0.50;;;;;;;;;;5007093;28;20256;-69
2024/01/18 12:12:35;;;;;;;2.00;0.50;;;;;;;;;;4990717;28;20175;-69
2024/01/18 12:15:00;;;;;;;2.87;0.70;;;;;;;;;;5010495;28;20638;-69
2024/01/18 12:17:25;;;;;;;3.43;0.80;;;;;;;;;;4993288;28;20202;-69
2024/01/18 12:19:50;;;;;;;3.50;0.50;;;;;;;;;;4994355;28;20252;-69
2024/01/18 12:22:17;;;;;;;1.07;0.43;;;;;;;;;;5011500;28;20183;-69
2024/01/18 12:24:42;;;;;;;2.87;0.80;;;;;;;;;;4989669;28;20175;-70
2024/01/18 12:27:07;;;;;;;1.20;0.60;;;;;;;;;;5012028;28;20688;-70
2024/01/18 12:29:33;;;;;;;0.50;0.40;;;;;;;;;;5011833;28;20203;-70
2024/01/18 12:31:59;;;;;;;0.77;0.75;;;;;;;;;;5009048;28;20183;-69
2024/01/18 12:34:25;;;;;;;2.83;0.82;;;;;;;;;;4992039;28;20183;-69
2024/01/18 12:36:50;;;;;;;3.28;0.70;;;;;;;;;;5005810;28;20168;-70
2024/01/18 12:39:19;;;;;;;0.50;0.40;;;;;;;;;;5008954;28;20187;-69
2024/01/18 12:41:44;;;;;;;1.02;0.43;;;;;;;;;;5007721;28;20216;-69
2024/01/18 12:44:13;;;;;;;1.45;0.55;;;;;;;;;;5008420;28;20175;-70
2024/01/18 12:46:39;;;;;;;5.20;1.17;;;;;;;;;;5010335;28;20193;-69
2024/01/18 12:49:05;;;;;;;3.80;0.50;;;;;;;;;;4992517;28;20207;-68
2024/01/18 12:51:31;;;;;;;4.95;0.85;;;;;;;;;;5010894;28;20170;-69
2024/01/18 12:53:57;;;;;;;0.87;0.37;;;;;;;;;;5010035;28;20183;-69
2024/01/18 12:56:22;;;;;;;1.83;0.27;;;;;;;;;;5005209;28;20194;-69
2024/01/18 12:58:47;;;;;;;1.37;0.20;;;;;;;;;;5005678;28;20171;-69
2024/01/18 13:01:27;;;;;;;1.37;0.20;;;;;;;;;;4995357;28;20297;-68
2024/01/18 13:04:07;;;;;;;0.40;0.20;;;;;;;;;;5003741;28;20179;-69
2024/01/18 13:06:33;;;;;;;0.23;0.23;;;;;;;;;;5009828;28;20281;-69
2024/01/18 13:08:58;;;;;;;0.20;0.20;;;;;;;;;;4994272;28;20698;-69
2024/01/18 13:11:23;;;;;;;0.37;0.20;;;;;;;;;;5007338;28;20202;-68
2024/01/18 13:13:48;;;;;;;1.00;0.20;;;;;;;;;;5007280;28;20268;-69
2024/01/18 13:16:14;;;;;;;2.97;0.30;;;;;;;;;;5008090;28;20196;-67
2024/01/18 13:18:39;;;;;;;2.33;0.20;;;;;;;;;;5008013;28;20216;-69
2024/01/18 13:21:04;;;;;;;0.97;0.13;;;;;;;;;;5010284;28;20731;-68
2024/01/18 13:23:29;;;;;;;0.77;0.20;;;;;;;;;;5004264;28;20215;-69
2024/01/18 13:25:54;;;;;;;1.80;0.40;;;;;;;;;;4992048;28;20202;-69
2024/01/18 13:28:21;;;;;;;2.40;0.40;;;;;;;;;;5011361;28;20254;-68
2024/01/18 13:30:46;;;;;;;1.10;0.33;;;;;;;;;;5009657;28;20314;-69
2024/01/18 13:33:11;;;;;;;0.57;0.30;;;;;;;;;;5003954;28;20604;-69
2024/01/18 13:35:36;;;;;;;2.53;0.80;;;;;;;;;;5006207;28;20175;-69
2024/01/18 13:38:01;;;;;;;1.50;0.50;;;;;;;;;;4991819;28;20186;-69
2024/01/18 13:40:27;;;;;;;0.30;0.20;;;;;;;;;;5009147;28;20261;-68
2024/01/18 13:42:52;;;;;;;0.50;0.20;;;;;;;;;;5007440;28;20187;-70
2024/01/18 13:45:17;;;;;;;0.30;0.30;;;;;;;;;;5007151;28;21151;-68
2024/01/18 13:47:42;;;;;;;1.77;0.40;;;;;;;;;;5008269;28;20702;-69
2024/01/18 13:50:08;;;;;;;2.27;0.20;;;;;;;;;;5004000;28;20570;-69
2024/01/18 13:52:33;;;;;;;0.47;0.30;;;;;;;;;;5010484;28;20255;-69
2024/01/18 13:54:58;;;;;;;0.23;0.20;;;;;;;;;;5000453;28;20179;-69
2024/01/18 13:57:25;;;;;;;0.20;0.20;;;;;;;;;;5006229;28;20186;-67
2024/01/18 13:59:50;;;;;;;0.40;0.30;;;;;;;;;;5006744;28;20300;-69
2024/01/18 14:02:15;;;;;;;0.60;0.30;;;;;;;;;;5006732;28;20191;-69
2024/01/18 14:04:40;;;;;;;1.57;0.20;;;;;;;;;;5007504;28;20697;-68
2024/01/18 14:07:06;;;;;;;0.40;0.20;;;;;;;;;;5006095;28;20198;-69
2024/01/18 14:09:31;;;;;;;0.87;0.20;;;;;;;;;;5002607;28;20282;-69
2024/01/18 14:11:56;;;;;;;0.43;0.23;;;;;;;;;;5007155;28;20646;-68
2024/01/18 14:14:22;;;;;;;0.40;0.20;;;;;;;;;;5007351;28;20592;-67
2024/01/18 14:16:47;;;;;;;0.20;0.20;;;;;;;;;;5009735;28;20179;-68
2024/01/18 14:19:12;;;;;;;2.00;0.30;;;;;;;;;;5011456;28;20190;-69
2024/01/18 14:21:37;;;;;;;0.10;0.10;;;;;;;;;;5010874;28;20194;-69
2024/01/18 14:24:03;;;;;;;0.60;0.40;;;;;;;;;;5014206;28;20186;-69
2024/01/18 14:26:28;;;;;;;1.47;0.40;;;;;;;;;;5008926;28;20245;-69
2024/01/18 14:28:53;;;;;;;0.53;0.33;;;;;;;;;;5007733;28;20215;-69